Time;durP1;ratioP1;P1;durP2;ratioP2;P2;SDS_P1;SDS_P2;PMS_P1;PMS_P2;Temp;Humidity;BMP_temperature;BMP_pressure;BME280_temperature;BME280_humidity;BME280_pressure;Samples;Min_cycle;Max_cycle;Signal;HPM_P1;HPM_P2
2021/01/21 00:02:18;;;;;;;3.13;1.10;;;;;;;11.20;53.31;97961.16;5006106;28;20490;-79
2021/01/21 00:04:44;;;;;;;3.70;1.65;;;;;;;11.21;53.43;97951.63;5013625;28;20053;-79
2021/01/21 00:07:11;;;;;;;2.92;1.30;;;;;;;11.25;53.11;97942.09;5017195;28;20049;-79
2021/01/21 00:09:38;;;;;;;3.40;1.52;;;;;;;11.26;53.06;97932.59;5011705;28;20053;-79
2021/01/21 00:12:06;;;;;;;4.47;1.63;;;;;;;11.31;53.01;97932.22;4997659;28;20069;-79
2021/01/21 00:14:34;;;;;;;2.22;1.40;;;;;;;11.31;53.08;97935.00;4998619;28;20081;-79
2021/01/21 00:17:01;;;;;;;3.20;1.40;;;;;;;11.27;53.36;97923.03;5016478;28;20054;-79
2021/01/21 00:19:28;;;;;;;3.30;1.63;;;;;;;11.30;53.04;97922.28;5017934;28;20073;-79
2021/01/21 00:21:55;;;;;;;2.67;1.10;;;;;;;11.29;53.67;97919.88;5017450;28;20080;-79
2021/01/21 00:24:22;;;;;;;2.50;1.20;;;;;;;11.27;53.55;97906.31;5002698;28;20054;-80
2021/01/21 00:26:48;;;;;;;3.10;1.35;;;;;;;11.23;53.78;97904.66;5005769;28;20049;-79
2021/01/21 00:29:15;;;;;;;4.32;1.75;;;;;;;11.22;53.58;97881.59;4998654;28;20399;-79
2021/01/21 00:31:43;;;;;;;3.45;1.10;;;;;;;11.27;53.02;97889.59;5013901;28;20052;-79
2021/01/21 00:34:11;;;;;;;3.53;1.40;;;;;;;11.28;53.36;97870.91;5005898;28;20049;-79
2021/01/21 00:36:38;;;;;;;3.55;1.40;;;;;;;11.26;53.41;97842.63;5017315;28;20064;-79
2021/01/21 00:39:06;;;;;;;2.40;1.17;;;;;;;11.26;53.62;97865.72;5008424;28;20061;-79
2021/01/21 00:41:33;;;;;;;7.38;2.15;;;;;;;11.26;53.47;97835.06;4997474;28;20059;-79
2021/01/21 00:44:02;;;;;;;2.83;1.20;;;;;;;11.24;52.98;97828.28;5002356;28;20049;-79
2021/01/21 00:46:29;;;;;;;3.08;1.20;;;;;;;11.20;52.83;97839.38;4998622;28;20042;-79
2021/01/21 00:48:57;;;;;;;4.50;1.30;;;;;;;11.20;52.94;97852.50;5011863;28;20411;-79
2021/01/21 00:51:24;;;;;;;4.05;1.63;;;;;;;11.18;52.71;97847.31;5017249;28;20050;-79
2021/01/21 00:53:50;;;;;;;3.67;1.52;;;;;;;11.19;52.60;97846.13;5004234;28;20057;-79
2021/01/21 00:56:17;;;;;;;2.47;0.98;;;;;;;11.16;52.34;97821.81;5015689;28;20057;-79
2021/01/21 00:58:44;;;;;;;3.90;1.20;;;;;;;11.20;52.49;97856.09;5012612;28;20063;-79
2021/01/21 01:01:11;;;;;;;3.58;1.35;;;;;;;11.22;52.23;97836.22;5013642;28;20069;-79
2021/01/21 01:03:38;;;;;;;2.60;1.23;;;;;;;11.17;52.45;97834.56;4997420;28;20054;-79
2021/01/21 01:06:07;;;;;;;3.63;1.30;;;;;;;11.15;52.65;97831.38;5011906;28;20050;-79
2021/01/21 01:08:34;;;;;;;3.35;1.20;;;;;;;11.16;52.26;97833.75;4996504;28;20061;-79
2021/01/21 01:11:01;;;;;;;4.32;1.10;;;;;;;11.14;52.25;97816.63;4997347;28;20488;-79
2021/01/21 01:13:28;;;;;;;4.85;1.52;;;;;;;11.15;52.32;97804.31;4998054;28;20054;-79
2021/01/21 01:15:54;;;;;;;3.78;1.67;;;;;;;11.10;52.36;97784.34;4996705;28;20423;-79
2021/01/21 01:18:21;;;;;;;3.65;1.70;;;;;;;11.11;52.13;97789.53;5002068;28;20053;-79
2021/01/21 01:20:48;;;;;;;1.60;0.88;;;;;;;11.09;52.07;97761.28;5016707;28;20065;-79
2021/01/21 01:23:16;;;;;;;3.50;1.40;;;;;;;11.13;52.10;97762.09;5012666;28;20487;-79
2021/01/21 01:25:43;;;;;;;3.83;1.08;;;;;;;11.07;52.12;97774.78;5006545;28;20049;-79
2021/01/21 01:28:10;;;;;;;3.55;0.90;;;;;;;11.11;51.81;97774.81;5004828;28;20046;-79
2021/01/21 01:30:37;;;;;;;5.15;1.30;;;;;;;11.09;51.78;97766.84;5004550;28;20054;-79
2021/01/21 01:33:04;;;;;;;3.92;1.20;;;;;;;11.10;51.82;97762.06;5015490;28;20423;-79
2021/01/21 01:35:31;;;;;;;3.22;1.00;;;;;;;11.12;51.57;97774.41;5016729;28;20053;-79
2021/01/21 01:37:58;;;;;;;2.47;1.20;;;;;;;11.06;52.10;97753.66;5014176;28;20042;-79
2021/01/21 01:40:25;;;;;;;5.53;1.70;;;;;;;11.06;51.72;97752.88;5016006;28;20054;-79
2021/01/21 01:42:52;;;;;;;2.65;0.93;;;;;;;11.09;51.99;97752.91;5009681;28;20054;-79
2021/01/21 01:45:19;;;;;;;2.55;1.38;;;;;;;11.09;51.47;97771.63;4999752;28;20050;-79
2021/01/21 01:47:47;;;;;;;3.03;1.20;;;;;;;11.10;51.32;97754.50;5015982;28;20061;-79
2021/01/21 01:50:15;;;;;;;2.70;1.05;;;;;;;11.07;51.88;97732.22;4980754;28;20059;-80
2021/01/21 01:52:43;;;;;;;1.10;0.68;;;;;;;11.00;51.78;97709.84;4975891;28;20059;-79
2021/01/21 01:55:12;;;;;;;2.92;1.40;;;;;;;11.07;51.76;97721.06;4992613;28;20502;-79
2021/01/21 01:57:40;;;;;;;3.95;1.20;;;;;;;11.06;51.85;97719.44;4995804;28;20053;-79
2021/01/21 02:00:14;;;;;;;3.88;1.38;;;;;;;11.12;51.52;97692.84;4996336;28;20065;-79
2021/01/21 02:02:41;;;;;;;3.92;1.35;;;;;;;11.10;51.57;97670.13;4994760;28;20046;-79
2021/01/21 02:05:09;;;;;;;1.98;0.90;;;;;;;11.11;51.28;97663.41;4994294;28;20054;-79
2021/01/21 02:07:35;;;;;;;2.03;0.75;;;;;;;11.14;51.35;97701.59;4993691;28;20054;-79
2021/01/21 02:10:03;;;;;;;3.10;0.90;;;;;;;11.10;51.56;97656.22;4995435;28;20487;-79
2021/01/21 02:12:44;;;;;;;2.22;0.90;;;;;;;11.16;51.00;97669.38;4989795;28;20051;-80
2021/01/21 02:15:20;;;;;;;3.05;1.02;;;;;;;11.15;51.34;97669.78;4987447;28;20058;-79
2021/01/21 02:17:52;;;;;;;3.03;1.25;;;;;;;11.19;50.92;97628.81;4976730;28;20046;-79
2021/01/21 02:20:52;;;;;;;2.35;0.60;;;;;;;11.15;50.85;97625.22;4976503;28;20062;-79
2021/01/21 02:23:45;;;;;;;;;;;;;;;11.15;50.88;97614.88;4976490;28;20066;-79
2021/01/21 02:26:18;;;;;;;3.53;1.20;;;;;;;11.12;51.38;97606.47;4978565;28;19922;-79
2021/01/21 02:29:02;;;;;;;2.70;0.93;;;;;;;11.17;50.90;97611.66;5004506;28;20050;-79
2021/01/21 02:31:42;;;;;;;3.03;0.90;;;;;;;11.18;50.76;97618.84;4987384;28;20055;-80
2021/01/21 02:34:12;;;;;;;;;;;;;;;11.22;50.99;97625.25;4988234;28;20045;-79
2021/01/21 02:36:40;;;;;;;;;;;;;;;11.14;51.09;97613.25;4994744;28;19922;-79
2021/01/21 02:39:10;;;;;;;5.07;1.63;;;;;;;11.17;51.00;97609.72;4976006;28;19922;-80
2021/01/21 02:41:37;;;;;;;3.13;1.02;;;;;;;11.21;51.32;97614.50;4986469;28;20140;-80
2021/01/21 02:44:04;;;;;;;2.33;1.00;;;;;;;11.16;51.01;97610.88;4986371;28;20055;-79
2021/01/21 02:46:31;;;;;;;4.53;1.30;;;;;;;11.20;50.98;97621.25;4993210;28;20054;-79
2021/01/21 02:48:59;;;;;;;2.03;0.95;;;;;;;11.18;51.02;97607.72;5012041;28;20057;-79
2021/01/21 02:51:39;;;;;;;2.53;1.10;;;;;;;11.23;50.91;97609.31;5015018;28;20054;-79
2021/01/21 02:54:26;;;;;;;2.83;1.08;;;;;;;11.24;50.90;97610.94;5008720;28;20050;-79
2021/01/21 02:57:02;;;;;;;2.20;1.27;;;;;;;11.32;50.71;97669.09;5007990;28;20053;-79
2021/01/21 02:59:33;;;;;;;1.67;0.90;;;;;;;11.38;50.71;97624.94;5017132;28;20061;-79
2021/01/21 03:02:02;;;;;;;4.13;1.40;;;;;;;11.43;50.72;97579.97;5012227;28;20050;-79
2021/01/21 03:04:32;;;;;;;1.58;0.90;;;;;;;11.54;50.25;97568.88;4998576;28;20403;-79
2021/01/21 03:07:01;;;;;;;2.25;0.80;;;;;;;11.56;50.03;97569.28;5000180;28;20045;-80
2021/01/21 03:09:29;;;;;;;4.38;1.08;;;;;;;11.54;50.01;97552.16;5014302;28;20058;-80
2021/01/21 03:12:17;;;;;;;1.83;0.80;;;;;;;11.55;49.85;97571.28;5009990;28;20049;-80
2021/01/21 03:14:44;;;;;;;2.97;0.80;;;;;;;11.55;50.02;97567.69;5005434;28;20050;-80
2021/01/21 03:17:12;;;;;;;3.50;1.13;;;;;;;11.59;49.51;97576.88;4995183;28;20057;-80
2021/01/21 03:19:39;;;;;;;3.53;1.17;;;;;;;11.61;49.67;97549.38;4995629;28;20504;-80
2021/01/21 03:22:07;;;;;;;1.50;0.90;;;;;;;11.63;49.50;97554.56;4999639;28;20046;-80
2021/01/21 03:24:33;;;;;;;2.97;0.90;;;;;;;11.71;49.12;97578.50;5006748;28;20057;-80
2021/01/21 03:27:02;;;;;;;3.30;0.85;;;;;;;11.66;49.55;97565.75;5012635;28;20411;-80
2021/01/21 03:29:29;;;;;;;2.17;0.80;;;;;;;11.70;48.86;97558.19;5004827;28;20415;-79
2021/01/21 03:31:56;;;;;;;3.22;1.00;;;;;;;11.70;49.47;97551.81;5016184;28;20054;-81
2021/01/21 03:34:23;;;;;;;5.43;0.85;;;;;;;11.70;49.32;97558.19;5028822;28;20054;-79
2021/01/21 03:36:50;;;;;;;3.42;1.00;;;;;;;11.76;49.36;97537.09;5017993;28;20050;-80
2021/01/21 03:39:18;;;;;;;2.85;1.10;;;;;;;11.78;49.26;97559.00;5010868;28;20061;-80
2021/01/21 03:41:45;;;;;;;2.30;1.00;;;;;;;11.81;49.09;97549.84;5018937;28;20053;-79
2021/01/21 03:44:12;;;;;;;3.15;1.17;;;;;;;11.83;49.19;97546.66;5023234;28;20073;-80
2021/01/21 03:46:38;;;;;;;1.55;0.82;;;;;;;11.88;49.00;97532.31;5012220;28;20402;-80
2021/01/21 03:49:05;;;;;;;4.30;1.05;;;;;;;11.93;49.08;97546.72;5002318;28;20069;-80
2021/01/21 03:51:32;;;;;;;3.03;1.23;;;;;;;11.97;49.11;97541.16;5001671;28;20518;-80
2021/01/21 03:53:59;;;;;;;1.92;0.80;;;;;;;11.98;49.29;97528.78;5001769;28;20050;-80
2021/01/21 03:56:32;;;;;;;2.22;1.02;;;;;;;11.84;56.90;97565.78;5001435;28;20161;-78
2021/01/21 03:58:58;;;;;;;5.47;1.20;;;;;;;11.61;57.17;97556.94;5007366;28;20057;-78
2021/01/21 04:01:25;;;;;;;3.05;1.30;;;;;;;11.44;58.60;97538.97;4999653;28;20507;-79
2021/01/21 04:03:52;;;;;;;9.02;1.30;;;;;;;11.28;58.48;97523.38;5017386;28;20046;-79
2021/01/21 04:06:19;;;;;;;3.28;1.02;;;;;;;11.21;56.58;97534.47;4993030;28;20053;-79
2021/01/21 04:08:46;;;;;;;2.40;1.02;;;;;;;11.22;55.36;97532.53;5001858;28;20062;-78
2021/01/21 04:11:13;;;;;;;4.18;1.00;;;;;;;11.19;55.77;97514.56;5018614;28;20053;-79
2021/01/21 04:13:40;;;;;;;2.45;1.10;;;;;;;11.20;55.03;97574.69;5020383;28;20383;-78
2021/01/21 04:16:08;;;;;;;3.45;0.93;;;;;;;11.24;54.24;97505.06;5019466;28;20074;-78
2021/01/21 04:18:34;;;;;;;2.42;0.98;;;;;;;11.33;53.89;97525.00;5011235;28;20050;-78
2021/01/21 04:21:01;;;;;;;3.95;0.90;;;;;;;11.42;55.72;97535.78;5001632;28;20057;-78
2021/01/21 04:23:28;;;;;;;1.85;1.00;;;;;;;11.47;55.10;97536.19;5016486;28;20494;-78
2021/01/21 04:25:55;;;;;;;1.38;0.75;;;;;;;11.44;54.69;97519.47;4999025;28;20362;-79
2021/01/21 04:28:22;;;;;;;1.98;1.10;;;;;;;11.37;53.72;97526.59;5009915;28;20066;-79
2021/01/21 04:30:49;;;;;;;1.38;0.63;;;;;;;11.47;52.99;97564.06;5014251;28;20061;-79
2021/01/21 04:33:16;;;;;;;2.40;0.98;;;;;;;11.46;53.25;97511.50;5007341;28;20076;-79
2021/01/21 04:35:45;;;;;;;2.78;0.80;;;;;;;11.60;52.31;97539.44;4999130;28;20057;-79
2021/01/21 04:38:12;;;;;;;2.00;0.80;;;;;;;11.71;51.60;97542.25;4999172;28;20058;-79
2021/01/21 04:40:39;;;;;;;3.45;0.82;;;;;;;11.81;51.60;97543.47;4999554;28;20484;-79
2021/01/21 04:43:06;;;;;;;1.73;0.93;;;;;;;11.95;51.03;97535.19;5004399;28;20081;-79
2021/01/21 04:45:33;;;;;;;1.92;0.90;;;;;;;11.96;50.83;97548.69;4998925;28;20057;-79
2021/01/21 04:48:01;;;;;;;1.95;0.82;;;;;;;12.08;50.68;97533.59;5012554;28;20054;-79
2021/01/21 04:50:32;;;;;;;2.83;0.75;;;;;;;12.13;50.44;97541.56;5017518;28;20053;-79
2021/01/21 04:53:03;;;;;;;1.65;0.95;;;;;;;12.24;50.57;97516.47;5024181;28;20045;-79
2021/01/21 04:55:34;;;;;;;1.90;0.80;;;;;;;12.28;50.16;97522.81;5019138;28;20054;-80
2021/01/21 04:58:09;;;;;;;2.50;1.17;;;;;;;12.34;50.09;97531.59;5011888;28;20045;-79
2021/01/21 05:00:38;;;;;;;1.15;0.55;;;;;;;12.38;50.10;97565.91;5018036;28;20054;-80
2021/01/21 05:03:08;;;;;;;2.93;0.87;;;;;;;12.42;49.86;97526.84;5018304;28;20050;-79
2021/01/21 05:05:35;;;;;;;1.55;0.80;;;;;;;12.48;49.89;97525.25;5019471;28;20054;-80
2021/01/21 05:08:02;;;;;;;2.35;0.95;;;;;;;12.52;49.84;97542.78;5009736;28;20061;-79
2021/01/21 05:10:30;;;;;;;3.90;1.27;;;;;;;12.52;49.72;97542.78;5011733;28;20055;-80
2021/01/21 05:12:57;;;;;;;2.40;0.98;;;;;;;12.52;50.05;97515.66;5017877;28;20050;-80
2021/01/21 05:15:23;;;;;;;2.00;0.70;;;;;;;12.54;50.04;97509.69;5016120;28;20057;-79
2021/01/21 05:17:53;;;;;;;1.08;0.50;;;;;;;12.59;49.89;97504.47;5011749;28;20054;-80
2021/01/21 05:20:23;;;;;;;1.17;0.50;;;;;;;12.61;49.94;97501.28;5003083;28;20053;-80
2021/01/21 05:22:56;;;;;;;0.73;0.43;;;;;;;12.55;50.10;97517.63;5017290;28;20126;-79
2021/01/21 05:25:23;;;;;;;2.55;0.82;;;;;;;12.59;50.32;97526.00;5000523;28;20058;-79
2021/01/21 05:27:50;;;;;;;1.40;0.80;;;;;;;12.58;50.46;97469.38;4999664;28;20053;-79
2021/01/21 05:36:48;;;;;;;1.40;0.63;;;;;;;12.53;50.80;97460.63;5024011;28;20062;-80
2021/01/21 05:39:47;;;;;;;2.05;1.20;;;;;;;12.59;51.09;97492.50;5017548;28;20058;-79
2021/01/21 05:42:52;;;;;;;1.10;0.60;;;;;;;12.56;51.71;97484.94;5004108;28;20065;-79
2021/01/21 05:45:42;;;;;;;2.13;1.10;;;;;;;12.51;51.97;97530.00;5007596;28;20052;-79
2021/01/21 05:51:30;;;;;;;1.55;0.70;;;;;;;12.52;53.39;97473.78;5008037;28;20066;-79
2021/01/21 05:54:13;;;;;;;1.20;0.60;;;;;;;12.46;58.89;97472.59;5022358;28;20431;-79
2021/01/21 05:56:48;;;;;;;1.75;0.73;;;;;;;12.08;60.82;97502.91;5024127;28;20065;-78
2021/01/21 05:59:22;;;;;;;0.63;0.43;;;;;;;11.79;60.34;97479.72;5017417;28;20070;-78
2021/01/21 06:01:55;;;;;;;1.75;0.70;;;;;;;11.51;61.88;97519.50;5004065;28;20135;-79
2021/01/21 06:04:38;;;;;;;2.05;0.80;;;;;;;11.44;64.29;97544.53;5006894;28;20054;-78
2021/01/21 06:07:33;;;;;;;4.07;1.40;;;;;;;11.06;72.22;97739.75;5022571;28;20050;-78
2021/01/21 06:10:32;;;;;;;2.00;0.60;;;;;;;10.66;68.55;97776.75;5017404;28;20411;-79
2021/01/21 06:13:25;;;;;;;2.97;0.52;;;;;;;10.18;68.04;97802.38;5003085;28;20054;-79
2021/01/21 06:16:08;;;;;;;1.63;0.40;;;;;;;9.63;68.12;97822.25;5004963;28;20061;-80
2021/01/21 06:18:55;;;;;;;1.90;0.43;;;;;;;9.29;68.78;97844.34;5006144;28;20050;-79
2021/01/21 06:22:02;;;;;;;6.07;1.20;;;;;;;8.93;69.88;97857.59;5006957;28;20058;-78
2021/01/21 06:24:52;;;;;;;2.58;0.63;;;;;;;8.56;71.95;97884.19;5015685;28;20049;-79
2021/01/21 06:30:58;;;;;;;1.95;0.70;;;;;;;8.13;71.38;97909.00;5000034;28;20054;-80
2021/01/21 06:33:58;;;;;;;;;;;;;;;;;;;;;
2021/01/21 06:37:00;;;;;;;1.38;0.90;;;;;;;7.65;72.52;97905.50;5019002;28;20061;-80
2021/01/21 06:40:16;;;;;;;;;;;;;;;;;;;;;
2021/01/21 06:43:20;;;;;;;1.48;0.50;;;;;;;7.38;72.31;97941.22;5019266;28;20064;-80
2021/01/21 06:46:29;;;;;;;2.63;0.55;;;;;;;7.35;72.96;97927.25;5001759;28;20054;-85
2021/01/21 06:52:49;;;;;;;1.73;0.77;;;;;;;7.10;71.77;97935.72;5014125;28;20058;-84
2021/01/21 06:56:23;;;;;;;1.60;0.70;;;;;;;6.95;72.18;97923.47;5005562;28;20038;-85
2021/01/21 07:06:41;;;;;;;3.97;0.85;;;;;;;6.74;72.34;97943.03;4859225;29;20058;-83
2021/01/21 07:12:51;;;;;;;3.83;1.13;;;;;;;6.75;71.91;97952.13;4972684;28;20061;-81
2021/01/21 07:19:15;;;;;;;3.50;0.80;;;;;;;6.70;71.54;97942.91;4913379;29;20089;-85
2021/01/21 07:22:27;;;;;;;3.85;0.95;;;;;;;6.70;71.73;97964.25;5008692;28;20488;-80
2021/01/21 07:28:29;;;;;;;2.25;0.65;;;;;;;6.63;72.99;97956.53;4992901;28;20165;-81
2021/01/21 07:31:30;;;;;;;2.30;1.30;;;;;;;6.65;72.14;97968.03;5006526;28;20054;-81
2021/01/21 07:34:43;;;;;;;4.60;1.15;;;;;;;6.66;72.41;97977.97;5006493;28;20422;-80
2021/01/21 07:41:27;;;;;;;4.85;0.90;;;;;;;6.66;71.30;98002.06;5004570;28;20411;-82
2021/01/21 07:44:08;;;;;;;3.78;1.05;;;;;;;6.67;69.33;98017.50;4962075;28;20057;-79
2021/01/21 07:46:36;;;;;;;6.20;1.10;;;;;;;6.55;71.43;97987.09;5005872;28;20058;-78
2021/01/21 07:49:37;;;;;;;6.65;1.17;;;;;;;6.50;70.79;97983.41;5019095;28;20050;-78
2021/01/21 07:52:14;;;;;;;3.10;1.20;;;;;;;6.59;70.16;97979.69;5014978;28;20046;-78
2021/01/21 07:54:54;;;;;;;3.58;1.00;;;;;;;6.64;71.37;97946.28;5011070;28;20065;-78
2021/01/21 07:57:33;;;;;;;6.07;2.42;;;;;;;6.69;71.75;97968.94;5005795;28;20057;-78
2021/01/21 08:00:11;;;;;;;8.52;1.80;;;;;;;6.67;70.54;97987.84;5014727;28;20046;-78
2021/01/21 08:02:56;;;;;;;4.90;1.10;;;;;;;6.65;70.80;98004.00;5013969;28;20109;-78
2021/01/21 08:05:29;;;;;;;6.30;1.40;;;;;;;6.65;71.92;98003.19;5020036;28;20050;-77
2021/01/21 08:08:03;;;;;;;3.17;1.13;;;;;;;6.63;70.47;98033.97;5011505;28;20053;-77
2021/01/21 08:10:45;;;;;;;6.47;2.05;;;;;;;6.62;70.32;98050.94;5015727;28;20057;-77
2021/01/21 08:13:27;;;;;;;5.05;1.20;;;;;;;6.59;71.37;98048.84;5007890;28;20058;-77
2021/01/21 08:16:03;;;;;;;3.25;1.00;;;;;;;6.56;70.74;98055.09;5019002;28;20058;-77
2021/01/21 08:18:34;;;;;;;4.53;1.00;;;;;;;6.66;70.43;98062.91;5006060;28;20058;-78
2021/01/21 08:21:01;;;;;;;6.97;1.50;;;;;;;6.70;71.37;98077.66;5004346;28;20388;-77
2021/01/21 08:23:29;;;;;;;3.45;1.30;;;;;;;6.63;70.56;98039.50;5003366;28;20058;-77
2021/01/21 08:25:59;;;;;;;4.07;1.00;;;;;;;6.75;70.65;98043.41;5009865;28;20054;-78
2021/01/21 08:28:28;;;;;;;;;;;;;;;6.77;69.12;98061.28;5005489;28;20066;-77
2021/01/21 08:30:54;;;;;;;3.75;1.30;;;;;;;6.79;70.23;98067.25;5001823;28;19930;-78
2021/01/21 08:33:23;;;;;;;3.47;0.90;;;;;;;6.83;69.85;98079.25;5002957;28;20596;-78
2021/01/21 08:35:52;;;;;;;2.08;0.88;;;;;;;6.82;70.01;98085.91;5001852;28;20053;-77
2021/01/21 08:38:23;;;;;;;3.35;0.90;;;;;;;6.84;70.03;98068.97;5007529;28;20058;-78
2021/01/21 08:40:51;;;;;;;4.55;1.70;;;;;;;6.93;70.39;98061.38;5000677;28;20057;-80
2021/01/21 08:43:20;;;;;;;3.78;1.30;;;;;;;6.88;69.31;98079.00;5010116;28;20511;-78
2021/01/21 08:45:49;;;;;;;2.45;0.75;;;;;;;6.93;68.50;98090.97;5008224;28;20072;-80
2021/01/21 08:48:26;;;;;;;4.50;1.23;;;;;;;6.84;68.58;98088.34;5014590;28;20049;-78
2021/01/21 08:50:53;;;;;;;4.07;0.95;;;;;;;6.91;68.51;98086.63;5014818;28;20058;-81
2021/01/21 08:53:24;;;;;;;2.30;0.95;;;;;;;6.91;67.39;98097.69;5012432;28;20069;-78
2021/01/21 08:55:52;;;;;;;2.50;0.80;;;;;;;6.91;69.01;98103.22;4997820;28;20061;-78
2021/01/21 08:58:20;;;;;;;3.30;0.90;;;;;;;6.85;68.55;98089.97;4999892;28;20064;-78
2021/01/21 09:01:04;;;;;;;5.43;1.10;;;;;;;6.91;67.74;98085.81;4999601;28;20050;-78
2021/01/21 09:03:35;;;;;;;5.40;1.38;;;;;;;8.00;65.72;98098.75;5007406;28;20068;-79
2021/01/21 09:06:02;;;;;;;1.75;1.13;;;;;;;9.83;59.11;98078.75;5007461;28;20066;-79
2021/01/21 09:08:29;;;;;;;3.92;1.58;;;;;;;12.74;50.46;98072.22;5001845;28;20057;-79
2021/01/21 09:10:58;;;;;;;3.75;1.30;;;;;;;14.31;46.19;98067.72;5006941;28;20057;-79
2021/01/21 09:13:28;;;;;;;3.75;1.15;;;;;;;13.90;44.95;98068.03;5006181;28;20069;-79
2021/01/21 09:15:56;;;;;;;2.60;1.27;;;;;;;14.14;44.10;98078.50;4990899;28;20054;-76
2021/01/21 09:18:25;;;;;;;4.78;1.70;;;;;;;15.58;42.12;98079.19;4993823;28;20053;-78
2021/01/21 09:21:13;;;;;;;3.57;0.90;;;;;;;15.58;40.00;98076.38;4984542;28;20065;-77
2021/01/21 09:23:40;;;;;;;2.83;1.60;;;;;;;16.71;38.75;98072.47;4986775;28;20466;-77
2021/01/21 09:26:12;;;;;;;4.15;1.50;;;;;;;17.90;36.68;98082.53;4989613;28;20155;-78
2021/01/21 09:28:57;;;;;;;5.45;1.60;;;;;;;18.78;33.45;98073.16;4995151;28;20054;-78
2021/01/21 09:31:27;;;;;;;4.30;1.77;;;;;;;19.09;33.31;98085.16;4991827;28;20049;-80
2021/01/21 09:33:55;;;;;;;3.65;1.63;;;;;;;19.82;31.88;98091.84;4997884;28;20054;-79
2021/01/21 09:36:26;;;;;;;4.35;1.48;;;;;;;20.27;30.22;98073.50;4995091;28;20053;-79
2021/01/21 09:38:56;;;;;;;3.35;1.48;;;;;;;20.76;29.32;98089.75;4999683;28;20058;-79
2021/01/21 09:41:23;;;;;;;4.07;1.50;;;;;;;20.65;29.62;98082.31;4991533;28;20046;-79
2021/01/21 09:43:50;;;;;;;4.43;1.30;;;;;;;20.62;30.01;98083.22;4994500;28;20591;-79
2021/01/21 09:46:18;;;;;;;4.43;1.50;;;;;;;21.10;28.86;98100.59;4993965;28;20055;-79
2021/01/21 09:48:45;;;;;;;4.63;1.55;;;;;;;21.37;28.29;98088.97;5000468;28;20058;-79
2021/01/21 09:51:12;;;;;;;5.00;1.58;;;;;;;20.36;29.42;98109.66;4986139;28;20061;-79
2021/01/21 09:53:38;;;;;;;3.72;1.40;;;;;;;21.13;28.96;98096.09;4990159;28;20054;-79
2021/01/21 09:56:05;;;;;;;5.45;1.95;;;;;;;21.45;27.34;98104.56;4994393;28;20046;-80
2021/01/21 09:58:32;;;;;;;5.32;1.70;;;;;;;22.05;26.80;98109.75;5004870;28;20061;-80
2021/01/21 10:01:00;;;;;;;4.57;1.40;;;;;;;21.84;26.90;98111.16;4995748;28;20381;-79
2021/01/21 10:03:28;;;;;;;5.05;1.60;;;;;;;21.92;27.25;98122.28;4992655;28;20061;-79
2021/01/21 10:05:55;;;;;;;5.97;1.95;;;;;;;22.94;26.24;98113.09;4992424;28;20073;-79
2021/01/21 10:08:22;;;;;;;4.72;1.90;;;;;;;23.07;25.67;98117.53;4998939;28;20049;-79
2021/01/21 10:10:48;;;;;;;5.40;2.40;;;;;;;22.18;26.48;98123.94;4995954;28;20057;-80
2021/01/21 10:13:15;;;;;;;5.43;1.90;;;;;;;20.93;27.77;98118.84;5001802;28;20054;-80
2021/01/21 10:15:42;;;;;;;8.10;3.28;;;;;;;18.57;31.29;98131.50;5004046;28;20134;-79
2021/01/21 10:18:09;;;;;;;5.03;2.05;;;;;;;17.03;35.66;98131.31;4999089;28;20046;-79
2021/01/21 10:20:37;;;;;;;3.63;1.10;;;;;;;15.93;36.98;98141.22;4995330;28;20057;-79
2021/01/21 10:23:04;;;;;;;5.82;1.60;;;;;;;14.84;39.17;98139.03;4987708;28;20066;-79
2021/01/21 10:25:31;;;;;;;4.03;1.40;;;;;;;13.95;41.23;98146.03;4996246;28;20051;-79
2021/01/21 10:27:57;;;;;;;5.43;1.60;;;;;;;13.71;42.29;98147.53;4988549;28;20149;-78
2021/01/21 10:30:25;;;;;;;4.20;1.48;;;;;;;13.90;41.79;98133.22;4991809;28;20403;-80
2021/01/21 10:32:52;;;;;;;6.00;2.72;;;;;;;16.37;37.21;98128.56;4993155;28;20061;-78
2021/01/21 10:35:21;;;;;;;3.65;1.40;;;;;;;19.22;31.67;98103.03;4988379;28;20415;-79
2021/01/21 10:37:49;;;;;;;4.15;2.60;;;;;;;21.30;27.67;98103.31;4994958;28;20061;-79
2021/01/21 10:40:16;;;;;;;5.95;2.47;;;;;;;23.04;25.37;98109.16;4992112;28;20061;-79
2021/01/21 10:42:43;;;;;;;5.13;2.72;;;;;;;23.00;24.98;98114.91;4990814;28;20046;-79
2021/01/21 10:45:11;;;;;;;3.47;2.33;;;;;;;22.39;26.07;98114.03;4998494;28;20081;-79
2021/01/21 10:47:38;;;;;;;4.03;1.60;;;;;;;23.76;23.88;98104.59;5003304;28;20054;-79
2021/01/21 10:50:06;;;;;;;6.25;1.30;;;;;;;20.49;28.52;98113.38;4999793;28;20496;-79
2021/01/21 10:52:33;;;;;;;6.03;3.78;;;;;;;20.28;29.72;98118.31;4997074;28;20067;-79
2021/01/21 10:55:01;;;;;;;5.13;1.83;;;;;;;19.87;29.58;98125.22;5000936;28;20054;-79
2021/01/21 10:57:31;;;;;;;4.35;1.20;;;;;;;21.91;26.67;98118.66;4994771;28;20054;-80
2021/01/21 10:59:58;;;;;;;5.25;3.10;;;;;;;21.40;27.33;98119.25;4997654;28;20066;-81
2021/01/21 11:02:24;;;;;;;7.55;5.80;;;;;;;20.26;30.03;98132.06;4998734;28;20392;-79
2021/01/21 11:04:51;;;;;;;5.07;4.68;;;;;;;21.03;27.67;98118.56;5005829;28;20058;-79
2021/01/21 11:07:18;;;;;;;5.00;1.25;;;;;;;18.93;31.04;98130.97;4999521;28;20062;-82
2021/01/21 11:09:45;;;;;;;6.22;3.22;;;;;;;18.15;32.81;98139.34;4998486;28;20055;-79
2021/01/21 11:12:15;;;;;;;5.03;1.88;;;;;;;17.90;33.63;98138.88;4996653;28;20451;-79
2021/01/21 11:14:42;;;;;;;4.88;1.55;;;;;;;16.80;35.14;98143.13;5011315;28;20411;-80
2021/01/21 11:17:09;;;;;;;6.00;1.38;;;;;;;16.19;36.93;98140.69;5000610;28;20488;-80
2021/01/21 11:19:35;;;;;;;3.88;1.48;;;;;;;16.78;35.76;98127.88;5008655;28;20054;-81
2021/01/21 11:22:03;;;;;;;4.95;2.38;;;;;;;18.00;33.27;98129.47;5015826;28;20050;-80
2021/01/21 11:24:29;;;;;;;8.45;7.65;;;;;;;19.80;29.96;98111.25;5015277;28;20065;-80
2021/01/21 11:26:56;;;;;;;11.98;11.27;;;;;;;21.89;27.20;98110.59;5009266;28;20061;-80
2021/01/21 11:29:24;;;;;;;9.90;9.20;;;;;;;23.41;25.11;98113.13;5000581;28;20050;-80
2021/01/21 11:31:52;;;;;;;5.32;4.82;;;;;;;22.78;24.81;98142.41;5001944;28;20062;-81
2021/01/21 11:34:19;;;;;;;6.25;4.45;;;;;;;20.97;27.94;98119.53;5011312;28;20050;-79
2021/01/21 11:36:47;;;;;;;5.28;3.55;;;;;;;19.69;29.30;98127.56;4999628;28;20077;-79
2021/01/21 11:39:14;;;;;;;3.65;2.92;;;;;;;18.57;30.68;98156.06;5006830;28;20487;-79
2021/01/21 11:41:41;;;;;;;5.78;2.10;;;;;;;17.20;33.29;98123.91;5003717;28;20051;-79
2021/01/21 11:44:10;;;;;;;4.70;1.77;;;;;;;16.27;35.33;98127.41;5005085;28;20065;-78
2021/01/21 11:46:38;;;;;;;2.90;1.08;;;;;;;15.09;37.59;98139.81;5005093;28;20054;-78
2021/01/21 11:49:05;;;;;;;3.25;1.60;;;;;;;14.16;39.54;98146.09;5010058;28;20072;-81
2021/01/21 11:51:32;;;;;;;5.38;2.60;;;;;;;14.53;38.97;98136.59;5013085;28;20061;-80
2021/01/21 11:53:59;;;;;;;4.15;2.00;;;;;;;15.06;37.84;98132.22;5009995;28;20385;-79
2021/01/21 11:56:26;;;;;;;3.20;2.08;;;;;;;15.52;36.78;98170.59;5010020;28;20407;-79
2021/01/21 11:58:53;;;;;;;4.88;3.17;;;;;;;15.29;37.10;98154.22;5006061;28;20504;-79
2021/01/21 12:01:20;;;;;;;3.63;2.40;;;;;;;15.68;37.02;98146.91;5011705;28;20057;-80
2021/01/21 12:03:47;;;;;;;3.67;1.60;;;;;;;14.66;38.30;98159.44;5014770;28;20057;-80
2021/01/21 12:06:14;;;;;;;3.75;1.20;;;;;;;14.35;39.88;98141.34;5012845;28;20459;-79
2021/01/21 12:08:41;;;;;;;3.55;1.50;;;;;;;14.12;40.45;98138.88;5015166;28;20053;-79
2021/01/21 12:11:08;;;;;;;4.13;1.10;;;;;;;13.90;40.82;98149.19;5002529;28;20393;-79
2021/01/21 12:13:38;;;;;;;4.25;1.10;;;;;;;13.39;42.58;98136.97;5009481;28;20050;-79
2021/01/21 12:16:05;;;;;;;2.83;0.82;;;;;;;12.55;44.54;98145.88;5002900;28;20058;-79
2021/01/21 12:18:32;;;;;;;1.48;0.80;;;;;;;12.24;44.67;98151.97;5006358;28;20062;-78
2021/01/21 12:21:00;;;;;;;2.38;1.13;;;;;;;11.82;46.31;98134.31;5009352;28;20061;-78
2021/01/21 12:23:27;;;;;;;3.75;1.10;;;;;;;11.64;46.21;98125.75;5011501;28;20483;-79
2021/01/21 12:25:54;;;;;;;3.15;1.00;;;;;;;11.47;46.34;98131.91;5005599;28;20070;-79
2021/01/21 12:28:21;;;;;;;2.65;1.30;;;;;;;11.54;47.22;98130.00;5008415;28;20396;-79
2021/01/21 12:30:49;;;;;;;3.35;1.50;;;;;;;11.83;45.81;98126.78;5001307;28;20510;-82
2021/01/21 12:33:16;;;;;;;6.45;1.40;;;;;;;12.25;45.24;98108.94;5013682;28;20054;-81
2021/01/21 12:35:43;;;;;;;2.33;1.00;;;;;;;12.34;44.98;98128.94;5009430;28;20053;-80
2021/01/21 12:38:13;;;;;;;3.45;1.88;;;;;;;12.01;45.87;98113.88;5009342;28;20410;-80
2021/01/21 12:40:40;;;;;;;2.50;1.10;;;;;;;12.26;45.05;98110.50;5011123;28;20050;-79